sensor_id;sensor_type;location;lat;lon;timestamp;P1;durP1;ratioP1;P2;durP2;ratioP2
15080;SDS011;7639;50.784;5.468;2022-12-29T00:01:45;0.95;;;0.80;;
15080;SDS011;7639;50.784;5.468;2022-12-29T00:04:18;1.33;;;0.95;;
15080;SDS011;7639;50.784;5.468;2022-12-29T00:06:44;0.90;;;0.88;;
15080;SDS011;7639;50.784;5.468;2022-12-29T00:09:16;1.00;;;0.90;;
15080;SDS011;7639;50.784;5.468;2022-12-29T00:11:42;1.10;;;1.00;;
15080;SDS011;7639;50.784;5.468;2022-12-29T00:14:08;1.25;;;0.93;;
15080;SDS011;7639;50.784;5.468;2022-12-29T00:16:55;0.82;;;0.82;;
15080;SDS011;7639;50.784;5.468;2022-12-29T00:19:21;1.10;;;1.00;;
15080;SDS011;7639;50.784;5.468;2022-12-29T00:22:08;1.02;;;0.90;;
15080;SDS011;7639;50.784;5.468;2022-12-29T00:24:55;1.00;;;0.90;;
15080;SDS011;7639;50.784;5.468;2022-12-29T00:27:41;0.90;;;0.90;;
15080;SDS011;7639;50.784;5.468;2022-12-29T00:30:26;0.90;;;0.90;;
15080;SDS011;7639;50.784;5.468;2022-12-29T00:33:14;0.90;;;0.90;;
15080;SDS011;7639;50.784;5.468;2022-12-29T00:36:02;1.00;;;0.90;;
15080;SDS011;7639;50.784;5.468;2022-12-29T00:38:32;0.88;;;0.88;;
15080;SDS011;7639;50.784;5.468;2022-12-29T00:41:20;0.93;;;0.93;;
15080;SDS011;7639;50.784;5.468;2022-12-29T00:44:07;1.20;;;1.08;;
15080;SDS011;7639;50.784;5.468;2022-12-29T00:46:36;0.82;;;0.82;;
15080;SDS011;7639;50.784;5.468;2022-12-29T00:49:03;1.00;;;0.90;;
15080;SDS011;7639;50.784;5.468;2022-12-29T00:51:49;0.77;;;0.77;;
15080;SDS011;7639;50.784;5.468;2022-12-29T00:54:16;0.75;;;0.75;;
15080;SDS011;7639;50.784;5.468;2022-12-29T00:56:42;1.20;;;1.00;;
15080;SDS011;7639;50.784;5.468;2022-12-29T00:59:08;1.10;;;0.90;;
15080;SDS011;7639;50.784;5.468;2022-12-29T01:01:35;0.82;;;0.70;;
15080;SDS011;7639;50.784;5.468;2022-12-29T01:04:02;1.10;;;0.90;;
15080;SDS011;7639;50.784;5.468;2022-12-29T01:06:29;0.80;;;0.80;;
15080;SDS011;7639;50.784;5.468;2022-12-29T01:08:55;0.80;;;0.80;;
15080;SDS011;7639;50.784;5.468;2022-12-29T01:11:40;1.38;;;0.90;;
15080;SDS011;7639;50.784;5.468;2022-12-29T01:14:06;1.10;;;1.00;;
15080;SDS011;7639;50.784;5.468;2022-12-29T01:16:33;1.10;;;1.00;;
15080;SDS011;7639;50.784;5.468;2022-12-29T01:19:01;1.83;;;0.90;;
15080;SDS011;7639;50.784;5.468;2022-12-29T01:21:27;1.63;;;0.95;;
15080;SDS011;7639;50.784;5.468;2022-12-29T01:23:52;1.33;;;1.10;;
15080;SDS011;7639;50.784;5.468;2022-12-29T01:26:18;1.50;;;1.00;;
15080;SDS011;7639;50.784;5.468;2022-12-29T01:28:44;0.95;;;0.80;;
15080;SDS011;7639;50.784;5.468;2022-12-29T01:31:11;1.30;;;0.90;;
15080;SDS011;7639;50.784;5.468;2022-12-29T01:33:39;2.63;;;1.20;;
15080;SDS011;7639;50.784;5.468;2022-12-29T01:36:06;1.00;;;0.90;;
15080;SDS011;7639;50.784;5.468;2022-12-29T01:38:34;1.75;;;1.00;;
15080;SDS011;7639;50.784;5.468;2022-12-29T01:41:01;1.17;;;1.08;;
15080;SDS011;7639;50.784;5.468;2022-12-29T01:43:44;0.95;;;0.90;;
15080;SDS011;7639;50.784;5.468;2022-12-29T01:46:13;1.77;;;1.17;;
15080;SDS011;7639;50.784;5.468;2022-12-29T01:48:52;1.10;;;1.00;;
15080;SDS011;7639;50.784;5.468;2022-12-29T01:51:23;1.08;;;0.90;;
15080;SDS011;7639;50.784;5.468;2022-12-29T01:53:51;1.00;;;0.90;;
15080;SDS011;7639;50.784;5.468;2022-12-29T01:56:20;1.33;;;0.90;;
15080;SDS011;7639;50.784;5.468;2022-12-29T01:58:47;1.17;;;1.00;;
15080;SDS011;7639;50.784;5.468;2022-12-29T02:01:15;1.17;;;1.00;;
15080;SDS011;7639;50.784;5.468;2022-12-29T02:03:44;0.82;;;0.82;;
15080;SDS011;7639;50.784;5.468;2022-12-29T02:06:11;1.02;;;0.90;;
15080;SDS011;7639;50.784;5.468;2022-12-29T02:08:38;0.80;;;0.80;;
15080;SDS011;7639;50.784;5.468;2022-12-29T02:11:05;1.08;;;0.70;;
15080;SDS011;7639;50.784;5.468;2022-12-29T02:13:31;3.33;;;1.00;;
15080;SDS011;7639;50.784;5.468;2022-12-29T02:16:11;0.80;;;0.80;;
15080;SDS011;7639;50.784;5.468;2022-12-29T02:22:02;0.98;;;0.90;;
15080;SDS011;7639;50.784;5.468;2022-12-29T02:24:57;1.20;;;1.10;;
15080;SDS011;7639;50.784;5.468;2022-12-29T02:27:54;1.02;;;0.90;;
15080;SDS011;7639;50.784;5.468;2022-12-29T02:31:02;0.90;;;0.90;;
15080;SDS011;7639;50.784;5.468;2022-12-29T02:36:54;0.80;;;0.77;;
15080;SDS011;7639;50.784;5.468;2022-12-29T02:45:38;0.70;;;0.70;;
15080;SDS011;7639;50.784;5.468;2022-12-29T02:48:15;1.05;;;0.80;;
15080;SDS011;7639;50.784;5.468;2022-12-29T02:50:52;0.70;;;0.70;;
15080;SDS011;7639;50.784;5.468;2022-12-29T02:53:25;0.70;;;0.70;;
15080;SDS011;7639;50.784;5.468;2022-12-29T02:56:12;1.10;;;0.85;;
15080;SDS011;7639;50.784;5.468;2022-12-29T02:58:38;0.90;;;0.70;;
15080;SDS011;7639;50.784;5.468;2022-12-29T03:03:59;0.90;;;0.80;;
15080;SDS011;7639;50.784;5.468;2022-12-29T03:09:41;0.88;;;0.80;;
15080;SDS011;7639;50.784;5.468;2022-12-29T03:12:29;0.80;;;0.80;;
15080;SDS011;7639;50.784;5.468;2022-12-29T03:15:39;1.00;;;0.90;;
15080;SDS011;7639;50.784;5.468;2022-12-29T03:18:34;0.73;;;0.73;;
15080;SDS011;7639;50.784;5.468;2022-12-29T03:21:10;1.30;;;1.00;;
15080;SDS011;7639;50.784;5.468;2022-12-29T03:23:41;1.08;;;0.90;;
15080;SDS011;7639;50.784;5.468;2022-12-29T03:26:08;0.88;;;0.75;;
15080;SDS011;7639;50.784;5.468;2022-12-29T03:28:38;2.90;;;0.82;;
15080;SDS011;7639;50.784;5.468;2022-12-29T03:31:07;1.40;;;0.93;;
15080;SDS011;7639;50.784;5.468;2022-12-29T03:33:35;0.75;;;0.73;;
15080;SDS011;7639;50.784;5.468;2022-12-29T03:36:04;0.88;;;0.88;;
15080;SDS011;7639;50.784;5.468;2022-12-29T03:38:37;1.08;;;0.90;;
15080;SDS011;7639;50.784;5.468;2022-12-29T03:41:11;1.00;;;0.88;;
15080;SDS011;7639;50.784;5.468;2022-12-29T03:43:42;0.90;;;0.80;;
15080;SDS011;7639;50.784;5.468;2022-12-29T03:46:07;3.28;;;1.00;;
15080;SDS011;7639;50.784;5.468;2022-12-29T03:48:33;0.98;;;0.85;;
15080;SDS011;7639;50.784;5.468;2022-12-29T03:50:59;0.80;;;0.65;;
15080;SDS011;7639;50.784;5.468;2022-12-29T03:53:24;0.70;;;0.70;;
15080;SDS011;7639;50.784;5.468;2022-12-29T03:55:50;0.65;;;0.65;;
15080;SDS011;7639;50.784;5.468;2022-12-29T03:58:16;1.20;;;0.90;;
15080;SDS011;7639;50.784;5.468;2022-12-29T04:00:42;2.17;;;0.80;;
15080;SDS011;7639;50.784;5.468;2022-12-29T04:03:07;0.70;;;0.70;;
15080;SDS011;7639;50.784;5.468;2022-12-29T04:05:33;2.38;;;0.90;;
15080;SDS011;7639;50.784;5.468;2022-12-29T04:07:59;1.55;;;1.00;;
15080;SDS011;7639;50.784;5.468;2022-12-29T04:10:25;1.30;;;0.90;;
15080;SDS011;7639;50.784;5.468;2022-12-29T04:12:50;2.35;;;0.80;;
15080;SDS011;7639;50.784;5.468;2022-12-29T04:15:16;0.95;;;0.73;;
15080;SDS011;7639;50.784;5.468;2022-12-29T04:17:42;2.22;;;0.90;;
15080;SDS011;7639;50.784;5.468;2022-12-29T04:20:07;1.05;;;0.95;;
15080;SDS011;7639;50.784;5.468;2022-12-29T04:22:58;0.80;;;0.80;;
15080;SDS011;7639;50.784;5.468;2022-12-29T04:25:24;0.75;;;0.75;;
15080;SDS011;7639;50.784;5.468;2022-12-29T04:27:49;0.70;;;0.70;;
15080;SDS011;7639;50.784;5.468;2022-12-29T04:30:15;0.90;;;0.80;;
15080;SDS011;7639;50.784;5.468;2022-12-29T04:32:41;1.00;;;0.90;;
15080;SDS011;7639;50.784;5.468;2022-12-29T04:35:07;0.82;;;0.60;;
15080;SDS011;7639;50.784;5.468;2022-12-29T04:37:33;1.40;;;0.88;;
15080;SDS011;7639;50.784;5.468;2022-12-29T04:39:58;1.13;;;0.82;;
15080;SDS011;7639;50.784;5.468;2022-12-29T04:42:24;2.03;;;0.70;;
15080;SDS011;7639;50.784;5.468;2022-12-29T04:44:50;0.70;;;0.70;;
15080;SDS011;7639;50.784;5.468;2022-12-29T04:47:15;1.58;;;0.90;;
15080;SDS011;7639;50.784;5.468;2022-12-29T04:49:41;0.77;;;0.68;;
15080;SDS011;7639;50.784;5.468;2022-12-29T04:52:06;1.05;;;0.80;;
15080;SDS011;7639;50.784;5.468;2022-12-29T04:54:33;2.25;;;0.77;;
15080;SDS011;7639;50.784;5.468;2022-12-29T04:56:59;0.95;;;0.70;;
15080;SDS011;7639;50.784;5.468;2022-12-29T04:59:25;1.00;;;0.90;;
15080;SDS011;7639;50.784;5.468;2022-12-29T05:01:51;0.80;;;0.80;;
15080;SDS011;7639;50.784;5.468;2022-12-29T05:04:17;0.90;;;0.80;;
15080;SDS011;7639;50.784;5.468;2022-12-29T05:06:43;1.48;;;0.90;;
15080;SDS011;7639;50.784;5.468;2022-12-29T05:09:08;1.00;;;0.80;;
15080;SDS011;7639;50.784;5.468;2022-12-29T05:11:34;0.98;;;0.80;;
15080;SDS011;7639;50.784;5.468;2022-12-29T05:14:00;0.82;;;0.75;;
15080;SDS011;7639;50.784;5.468;2022-12-29T05:16:25;1.08;;;0.80;;
15080;SDS011;7639;50.784;5.468;2022-12-29T05:18:51;0.95;;;0.85;;
15080;SDS011;7639;50.784;5.468;2022-12-29T05:21:17;1.00;;;0.80;;
15080;SDS011;7639;50.784;5.468;2022-12-29T05:23:42;1.08;;;0.80;;
15080;SDS011;7639;50.784;5.468;2022-12-29T05:26:08;1.30;;;0.70;;
15080;SDS011;7639;50.784;5.468;2022-12-29T05:28:34;1.52;;;0.90;;
15080;SDS011;7639;50.784;5.468;2022-12-29T05:30:59;0.70;;;0.63;;
15080;SDS011;7639;50.784;5.468;2022-12-29T05:33:25;1.45;;;0.77;;
15080;SDS011;7639;50.784;5.468;2022-12-29T05:35:51;2.55;;;1.00;;
15080;SDS011;7639;50.784;5.468;2022-12-29T05:38:16;1.00;;;0.80;;
15080;SDS011;7639;50.784;5.468;2022-12-29T05:40:42;1.33;;;0.80;;
15080;SDS011;7639;50.784;5.468;2022-12-29T05:43:08;1.38;;;0.90;;
15080;SDS011;7639;50.784;5.468;2022-12-29T05:45:35;0.73;;;0.70;;
15080;SDS011;7639;50.784;5.468;2022-12-29T05:48:07;1.42;;;0.80;;
15080;SDS011;7639;50.784;5.468;2022-12-29T05:50:39;1.27;;;0.88;;
15080;SDS011;7639;50.784;5.468;2022-12-29T05:53:05;1.38;;;1.25;;
15080;SDS011;7639;50.784;5.468;2022-12-29T05:55:31;1.48;;;0.75;;
15080;SDS011;7639;50.784;5.468;2022-12-29T05:57:57;1.23;;;0.80;;
15080;SDS011;7639;50.784;5.468;2022-12-29T06:00:23;1.15;;;0.70;;
15080;SDS011;7639;50.784;5.468;2022-12-29T06:02:49;4.80;;;0.82;;
15080;SDS011;7639;50.784;5.468;2022-12-29T06:05:15;2.03;;;0.80;;
15080;SDS011;7639;50.784;5.468;2022-12-29T06:07:40;0.82;;;0.70;;
15080;SDS011;7639;50.784;5.468;2022-12-29T06:10:07;1.15;;;0.80;;
15080;SDS011;7639;50.784;5.468;2022-12-29T06:12:33;1.42;;;0.90;;
15080;SDS011;7639;50.784;5.468;2022-12-29T06:14:58;1.10;;;0.80;;
15080;SDS011;7639;50.784;5.468;2022-12-29T06:17:24;1.45;;;0.88;;
15080;SDS011;7639;50.784;5.468;2022-12-29T06:19:50;1.10;;;0.88;;
15080;SDS011;7639;50.784;5.468;2022-12-29T06:22:16;1.55;;;0.80;;
15080;SDS011;7639;50.784;5.468;2022-12-29T06:24:42;2.15;;;0.85;;
15080;SDS011;7639;50.784;5.468;2022-12-29T06:27:08;2.13;;;1.00;;
15080;SDS011;7639;50.784;5.468;2022-12-29T06:29:33;0.80;;;0.60;;
15080;SDS011;7639;50.784;5.468;2022-12-29T06:32:02;2.05;;;0.90;;
15080;SDS011;7639;50.784;5.468;2022-12-29T06:34:28;2.40;;;0.95;;
15080;SDS011;7639;50.784;5.468;2022-12-29T06:36:54;1.67;;;0.90;;
15080;SDS011;7639;50.784;5.468;2022-12-29T06:39:19;1.70;;;1.00;;
15080;SDS011;7639;50.784;5.468;2022-12-29T06:41:45;1.10;;;0.80;;
15080;SDS011;7639;50.784;5.468;2022-12-29T06:44:11;1.23;;;0.82;;
15080;SDS011;7639;50.784;5.468;2022-12-29T06:46:37;1.55;;;0.80;;
15080;SDS011;7639;50.784;5.468;2022-12-29T06:49:02;1.08;;;0.70;;
15080;SDS011;7639;50.784;5.468;2022-12-29T06:51:29;4.35;;;1.10;;
15080;SDS011;7639;50.784;5.468;2022-12-29T06:53:54;4.20;;;0.90;;
15080;SDS011;7639;50.784;5.468;2022-12-29T06:56:20;2.88;;;1.13;;
15080;SDS011;7639;50.784;5.468;2022-12-29T06:58:46;3.13;;;0.98;;
15080;SDS011;7639;50.784;5.468;2022-12-29T07:01:11;1.98;;;0.70;;
15080;SDS011;7639;50.784;5.468;2022-12-29T07:03:37;1.45;;;0.85;;
15080;SDS011;7639;50.784;5.468;2022-12-29T07:06:03;3.80;;;0.90;;
15080;SDS011;7639;50.784;5.468;2022-12-29T07:08:29;1.30;;;0.90;;
15080;SDS011;7639;50.784;5.468;2022-12-29T07:10:54;0.93;;;0.80;;
15080;SDS011;7639;50.784;5.468;2022-12-29T07:13:20;1.58;;;1.00;;
15080;SDS011;7639;50.784;5.468;2022-12-29T07:15:46;1.42;;;0.73;;
15080;SDS011;7639;50.784;5.468;2022-12-29T07:18:11;1.48;;;0.88;;
15080;SDS011;7639;50.784;5.468;2022-12-29T07:20:37;1.20;;;0.70;;
15080;SDS011;7639;50.784;5.468;2022-12-29T07:23:03;3.15;;;0.88;;
15080;SDS011;7639;50.784;5.468;2022-12-29T07:25:28;3.97;;;0.85;;
15080;SDS011;7639;50.784;5.468;2022-12-29T07:27:54;1.00;;;0.80;;
15080;SDS011;7639;50.784;5.468;2022-12-29T07:30:20;1.55;;;0.90;;
15080;SDS011;7639;50.784;5.468;2022-12-29T07:32:46;1.42;;;0.90;;
15080;SDS011;7639;50.784;5.468;2022-12-29T07:35:11;1.67;;;1.02;;
15080;SDS011;7639;50.784;5.468;2022-12-29T07:37:37;2.60;;;0.90;;
15080;SDS011;7639;50.784;5.468;2022-12-29T07:40:03;1.27;;;0.93;;
15080;SDS011;7639;50.784;5.468;2022-12-29T07:42:30;2.28;;;1.00;;
15080;SDS011;7639;50.784;5.468;2022-12-29T07:44:56;1.42;;;0.88;;
15080;SDS011;7639;50.784;5.468;2022-12-29T07:47:22;2.08;;;1.10;;
15080;SDS011;7639;50.784;5.468;2022-12-29T07:49:47;1.75;;;0.93;;
15080;SDS011;7639;50.784;5.468;2022-12-29T07:52:13;2.03;;;0.85;;
15080;SDS011;7639;50.784;5.468;2022-12-29T07:54:39;2.38;;;0.98;;
15080;SDS011;7639;50.784;5.468;2022-12-29T07:57:05;1.65;;;0.85;;
15080;SDS011;7639;50.784;5.468;2022-12-29T07:59:31;2.65;;;1.15;;
15080;SDS011;7639;50.784;5.468;2022-12-29T08:01:57;1.35;;;0.90;;
15080;SDS011;7639;50.784;5.468;2022-12-29T08:04:23;1.90;;;0.77;;
15080;SDS011;7639;50.784;5.468;2022-12-29T08:06:49;1.40;;;0.95;;
15080;SDS011;7639;50.784;5.468;2022-12-29T08:09:14;1.85;;;0.88;;
15080;SDS011;7639;50.784;5.468;2022-12-29T08:11:40;1.25;;;0.90;;
15080;SDS011;7639;50.784;5.468;2022-12-29T08:14:06;1.88;;;0.80;;
15080;SDS011;7639;50.784;5.468;2022-12-29T08:16:32;3.72;;;1.05;;
15080;SDS011;7639;50.784;5.468;2022-12-29T08:18:58;3.85;;;1.00;;
15080;SDS011;7639;50.784;5.468;2022-12-29T08:21:24;2.20;;;1.00;;
15080;SDS011;7639;50.784;5.468;2022-12-29T08:23:51;1.83;;;1.10;;
15080;SDS011;7639;50.784;5.468;2022-12-29T08:26:17;1.73;;;0.90;;
15080;SDS011;7639;50.784;5.468;2022-12-29T08:28:43;3.10;;;0.90;;
15080;SDS011;7639;50.784;5.468;2022-12-29T08:31:09;1.95;;;0.90;;
15080;SDS011;7639;50.784;5.468;2022-12-29T08:33:35;1.77;;;1.02;;
15080;SDS011;7639;50.784;5.468;2022-12-29T08:36:01;3.60;;;1.20;;
15080;SDS011;7639;50.784;5.468;2022-12-29T08:38:28;2.78;;;1.02;;
15080;SDS011;7639;50.784;5.468;2022-12-29T08:40:55;2.20;;;0.90;;
15080;SDS011;7639;50.784;5.468;2022-12-29T08:43:22;3.28;;;1.10;;
15080;SDS011;7639;50.784;5.468;2022-12-29T08:45:48;3.67;;;1.10;;
15080;SDS011;7639;50.784;5.468;2022-12-29T08:48:14;2.42;;;0.82;;
15080;SDS011;7639;50.784;5.468;2022-12-29T08:50:43;3.00;;;1.00;;
15080;SDS011;7639;50.784;5.468;2022-12-29T08:53:09;2.28;;;0.90;;
15080;SDS011;7639;50.784;5.468;2022-12-29T08:55:35;2.92;;;1.17;;
15080;SDS011;7639;50.784;5.468;2022-12-29T08:58:00;2.47;;;0.90;;
15080;SDS011;7639;50.784;5.468;2022-12-29T09:00:26;2.63;;;1.10;;
15080;SDS011;7639;50.784;5.468;2022-12-29T09:02:52;1.30;;;0.90;;
15080;SDS011;7639;50.784;5.468;2022-12-29T09:05:17;3.45;;;1.20;;
15080;SDS011;7639;50.784;5.468;2022-12-29T09:07:43;3.20;;;1.10;;
15080;SDS011;7639;50.784;5.468;2022-12-29T09:10:09;2.75;;;1.02;;
15080;SDS011;7639;50.784;5.468;2022-12-29T09:12:35;1.98;;;1.05;;
15080;SDS011;7639;50.784;5.468;2022-12-29T09:15:01;4.07;;;1.00;;
15080;SDS011;7639;50.784;5.468;2022-12-29T09:17:27;3.25;;;1.10;;
15080;SDS011;7639;50.784;5.468;2022-12-29T09:20:14;1.55;;;0.90;;
15080;SDS011;7639;50.784;5.468;2022-12-29T09:22:42;2.30;;;1.15;;
15080;SDS011;7639;50.784;5.468;2022-12-29T09:25:08;2.28;;;1.10;;
15080;SDS011;7639;50.784;5.468;2022-12-29T09:27:35;2.33;;;0.90;;
15080;SDS011;7639;50.784;5.468;2022-12-29T09:30:02;2.25;;;0.90;;
15080;SDS011;7639;50.784;5.468;2022-12-29T09:32:31;5.65;;;1.33;;
15080;SDS011;7639;50.784;5.468;2022-12-29T09:34:56;4.03;;;1.00;;
15080;SDS011;7639;50.784;5.468;2022-12-29T09:37:22;3.05;;;1.10;;
15080;SDS011;7639;50.784;5.468;2022-12-29T09:39:48;2.45;;;0.93;;
15080;SDS011;7639;50.784;5.468;2022-12-29T09:45:17;2.05;;;0.90;;
15080;SDS011;7639;50.784;5.468;2022-12-29T09:48:05;2.53;;;1.10;;
15080;SDS011;7639;50.784;5.468;2022-12-29T09:50:38;5.88;;;1.13;;
15080;SDS011;7639;50.784;5.468;2022-12-29T09:53:13;3.35;;;1.25;;
15080;SDS011;7639;50.784;5.468;2022-12-29T09:55:42;3.63;;;1.10;;
15080;SDS011;7639;50.784;5.468;2022-12-29T09:58:21;1.75;;;0.90;;
15080;SDS011;7639;50.784;5.468;2022-12-29T10:01:01;1.55;;;0.98;;
15080;SDS011;7639;50.784;5.468;2022-12-29T10:03:48;2.58;;;1.17;;
15080;SDS011;7639;50.784;5.468;2022-12-29T10:06:26;1.75;;;1.00;;
15080;SDS011;7639;50.784;5.468;2022-12-29T10:09:02;3.72;;;1.08;;
15080;SDS011;7639;50.784;5.468;2022-12-29T10:17:22;1.52;;;0.80;;
15080;SDS011;7639;50.784;5.468;2022-12-29T10:22:56;4.32;;;0.93;;
15080;SDS011;7639;50.784;5.468;2022-12-29T10:25:41;2.50;;;1.15;;
15080;SDS011;7639;50.784;5.468;2022-12-29T10:30:53;1.25;;;0.80;;
15080;SDS011;7639;50.784;5.468;2022-12-29T10:33:22;2.20;;;0.90;;
15080;SDS011;7639;50.784;5.468;2022-12-29T10:35:55;2.88;;;1.20;;
15080;SDS011;7639;50.784;5.468;2022-12-29T10:43:54;2.35;;;1.20;;
15080;SDS011;7639;50.784;5.468;2022-12-29T10:46:21;4.97;;;1.23;;
15080;SDS011;7639;50.784;5.468;2022-12-29T10:48:48;1.88;;;0.90;;
15080;SDS011;7639;50.784;5.468;2022-12-29T10:51:24;1.88;;;1.10;;
15080;SDS011;7639;50.784;5.468;2022-12-29T10:53:58;1.45;;;0.98;;
15080;SDS011;7639;50.784;5.468;2022-12-29T10:56:34;2.53;;;1.00;;
15080;SDS011;7639;50.784;5.468;2022-12-29T10:59:06;2.10;;;0.95;;
15080;SDS011;7639;50.784;5.468;2022-12-29T11:01:44;3.15;;;1.08;;
15080;SDS011;7639;50.784;5.468;2022-12-29T11:04:28;3.35;;;1.20;;
15080;SDS011;7639;50.784;5.468;2022-12-29T11:06:56;1.67;;;1.05;;
15080;SDS011;7639;50.784;5.468;2022-12-29T11:09:24;3.55;;;1.00;;
15080;SDS011;7639;50.784;5.468;2022-12-29T11:11:54;2.42;;;1.08;;
15080;SDS011;7639;50.784;5.468;2022-12-29T11:14:26;3.05;;;1.17;;
15080;SDS011;7639;50.784;5.468;2022-12-29T11:16:56;2.30;;;1.00;;
15080;SDS011;7639;50.784;5.468;2022-12-29T11:19:26;2.28;;;0.80;;
15080;SDS011;7639;50.784;5.468;2022-12-29T11:21:56;2.45;;;1.20;;
15080;SDS011;7639;50.784;5.468;2022-12-29T11:24:47;1.90;;;1.10;;
15080;SDS011;7639;50.784;5.468;2022-12-29T11:27:15;2.85;;;1.17;;
15080;SDS011;7639;50.784;5.468;2022-12-29T11:29:45;3.25;;;1.10;;
15080;SDS011;7639;50.784;5.468;2022-12-29T11:32:27;2.17;;;1.02;;
15080;SDS011;7639;50.784;5.468;2022-12-29T11:35:01;2.20;;;0.80;;
15080;SDS011;7639;50.784;5.468;2022-12-29T11:37:36;3.20;;;1.10;;
15080;SDS011;7639;50.784;5.468;2022-12-29T11:40:05;4.13;;;1.17;;
15080;SDS011;7639;50.784;5.468;2022-12-29T11:42:41;2.30;;;1.08;;
15080;SDS011;7639;50.784;5.468;2022-12-29T11:45:18;1.75;;;1.10;;
15080;SDS011;7639;50.784;5.468;2022-12-29T11:47:48;1.48;;;0.90;;
15080;SDS011;7639;50.784;5.468;2022-12-29T11:50:18;1.67;;;1.08;;
15080;SDS011;7639;50.784;5.468;2022-12-29T11:52:46;2.80;;;0.85;;
15080;SDS011;7639;50.784;5.468;2022-12-29T11:55:18;3.25;;;1.05;;
15080;SDS011;7639;50.784;5.468;2022-12-29T11:57:48;2.63;;;1.10;;
15080;SDS011;7639;50.784;5.468;2022-12-29T12:00:18;1.23;;;0.90;;
15080;SDS011;7639;50.784;5.468;2022-12-29T12:02:50;0.95;;;0.80;;
15080;SDS011;7639;50.784;5.468;2022-12-29T12:05:21;1.52;;;0.95;;
15080;SDS011;7639;50.784;5.468;2022-12-29T12:07:54;2.88;;;1.20;;
15080;SDS011;7639;50.784;5.468;2022-12-29T12:10:27;1.60;;;1.00;;
15080;SDS011;7639;50.784;5.468;2022-12-29T12:13:06;2.22;;;1.00;;
15080;SDS011;7639;50.784;5.468;2022-12-29T12:15:44;2.78;;;0.98;;
15080;SDS011;7639;50.784;5.468;2022-12-29T12:21:00;1.88;;;1.00;;
15080;SDS011;7639;50.784;5.468;2022-12-29T12:26:20;2.05;;;1.10;;
15080;SDS011;7639;50.784;5.468;2022-12-29T12:28:52;3.72;;;1.23;;
15080;SDS011;7639;50.784;5.468;2022-12-29T12:31:27;3.95;;;1.25;;
15080;SDS011;7639;50.784;5.468;2022-12-29T12:34:11;3.65;;;1.30;;
15080;SDS011;7639;50.784;5.468;2022-12-29T12:37:15;2.60;;;1.00;;
15080;SDS011;7639;50.784;5.468;2022-12-29T12:45:49;1.95;;;1.10;;
15080;SDS011;7639;50.784;5.468;2022-12-29T12:48:32;1.35;;;1.00;;
15080;SDS011;7639;50.784;5.468;2022-12-29T12:54:22;1.88;;;1.02;;
15080;SDS011;7639;50.784;5.468;2022-12-29T12:56:55;3.65;;;1.40;;
15080;SDS011;7639;50.784;5.468;2022-12-29T12:59:36;2.20;;;1.20;;
15080;SDS011;7639;50.784;5.468;2022-12-29T13:02:15;2.22;;;1.10;;
15080;SDS011;7639;50.784;5.468;2022-12-29T13:04:52;1.85;;;1.10;;
15080;SDS011;7639;50.784;5.468;2022-12-29T13:08:02;3.88;;;0.98;;
15080;SDS011;7639;50.784;5.468;2022-12-29T13:10:59;4.18;;;1.00;;
15080;SDS011;7639;50.784;5.468;2022-12-29T13:16:46;1.88;;;1.00;;
15080;SDS011;7639;50.784;5.468;2022-12-29T13:19:39;2.03;;;1.13;;
15080;SDS011;7639;50.784;5.468;2022-12-29T13:22:12;1.88;;;1.00;;
15080;SDS011;7639;50.784;5.468;2022-12-29T13:27:59;1.42;;;0.95;;
15080;SDS011;7639;50.784;5.468;2022-12-29T13:36:59;3.38;;;1.10;;
15080;SDS011;7639;50.784;5.468;2022-12-29T13:39:34;2.50;;;1.20;;
15080;SDS011;7639;50.784;5.468;2022-12-29T13:42:02;2.28;;;1.00;;
15080;SDS011;7639;50.784;5.468;2022-12-29T13:44:32;1.85;;;1.00;;
15080;SDS011;7639;50.784;5.468;2022-12-29T13:47:01;3.45;;;1.40;;
15080;SDS011;7639;50.784;5.468;2022-12-29T13:49:42;2.92;;;1.10;;
15080;SDS011;7639;50.784;5.468;2022-12-29T14:03:45;1.08;;;0.98;;
15080;SDS011;7639;50.784;5.468;2022-12-29T14:06:15;3.20;;;1.15;;
15080;SDS011;7639;50.784;5.468;2022-12-29T14:08:52;3.30;;;1.17;;
15080;SDS011;7639;50.784;5.468;2022-12-29T14:11:22;2.80;;;1.23;;
15080;SDS011;7639;50.784;5.468;2022-12-29T14:13:49;5.25;;;1.25;;
15080;SDS011;7639;50.784;5.468;2022-12-29T14:16:32;2.13;;;1.20;;
15080;SDS011;7639;50.784;5.468;2022-12-29T14:21:53;2.40;;;1.10;;
15080;SDS011;7639;50.784;5.468;2022-12-29T14:30:01;2.83;;;1.27;;
15080;SDS011;7639;50.784;5.468;2022-12-29T14:35:36;4.43;;;1.55;;
15080;SDS011;7639;50.784;5.468;2022-12-29T14:38:06;2.00;;;1.00;;
15080;SDS011;7639;50.784;5.468;2022-12-29T14:40:39;3.25;;;1.25;;
15080;SDS011;7639;50.784;5.468;2022-12-29T14:43:06;3.08;;;1.10;;
15080;SDS011;7639;50.784;5.468;2022-12-29T14:45:39;2.95;;;1.13;;
15080;SDS011;7639;50.784;5.468;2022-12-29T14:50:52;2.53;;;1.20;;
15080;SDS011;7639;50.784;5.468;2022-12-29T14:56:20;1.95;;;1.10;;
15080;SDS011;7639;50.784;5.468;2022-12-29T14:58:52;4.28;;;1.15;;
15080;SDS011;7639;50.784;5.468;2022-12-29T15:01:24;4.38;;;1.30;;
15080;SDS011;7639;50.784;5.468;2022-12-29T15:04:17;2.38;;;1.65;;
15080;SDS011;7639;50.784;5.468;2022-12-29T15:06:46;3.50;;;1.45;;
15080;SDS011;7639;50.784;5.468;2022-12-29T15:09:31;3.17;;;1.30;;
15080;SDS011;7639;50.784;5.468;2022-12-29T15:14:55;2.28;;;1.02;;
15080;SDS011;7639;50.784;5.468;2022-12-29T15:17:29;1.57;;;1.03;;
15080;SDS011;7639;50.784;5.468;2022-12-29T15:19:56;5.15;;;1.20;;
15080;SDS011;7639;50.784;5.468;2022-12-29T15:22:23;2.23;;;0.90;;
15080;SDS011;7639;50.784;5.468;2022-12-29T15:24:50;2.83;;;1.10;;
15080;SDS011;7639;50.784;5.468;2022-12-29T15:27:19;3.55;;;1.13;;
15080;SDS011;7639;50.784;5.468;2022-12-29T15:29:48;3.93;;;1.50;;
15080;SDS011;7639;50.784;5.468;2022-12-29T15:32:27;3.77;;;1.37;;
15080;SDS011;7639;50.784;5.468;2022-12-29T15:34:54;2.87;;;1.10;;
15080;SDS011;7639;50.784;5.468;2022-12-29T15:37:32;4.97;;;1.40;;
15080;SDS011;7639;50.784;5.468;2022-12-29T15:40:00;2.13;;;1.13;;
15080;SDS011;7639;50.784;5.468;2022-12-29T15:45:19;4.97;;;1.50;;
15080;SDS011;7639;50.784;5.468;2022-12-29T15:47:45;4.77;;;1.40;;
15080;SDS011;7639;50.784;5.468;2022-12-29T15:50:17;5.07;;;1.20;;
15080;SDS011;7639;50.784;5.468;2022-12-29T15:52:55;3.23;;;1.20;;
15080;SDS011;7639;50.784;5.468;2022-12-29T15:55:28;6.07;;;1.40;;
15080;SDS011;7639;50.784;5.468;2022-12-29T15:57:58;4.50;;;1.30;;
15080;SDS011;7639;50.784;5.468;2022-12-29T16:00:27;3.40;;;1.40;;
15080;SDS011;7639;50.784;5.468;2022-12-29T16:02:57;4.77;;;1.40;;
15080;SDS011;7639;50.784;5.468;2022-12-29T16:05:34;3.27;;;1.57;;
15080;SDS011;7639;50.784;5.468;2022-12-29T16:08:01;4.60;;;1.30;;
15080;SDS011;7639;50.784;5.468;2022-12-29T16:10:30;4.03;;;1.30;;
15080;SDS011;7639;50.784;5.468;2022-12-29T16:13:15;7.00;;;1.77;;
15080;SDS011;7639;50.784;5.468;2022-12-29T16:15:55;2.57;;;1.23;;
15080;SDS011;7639;50.784;5.468;2022-12-29T16:18:27;4.17;;;1.60;;
15080;SDS011;7639;50.784;5.468;2022-12-29T16:20:54;4.20;;;1.37;;
15080;SDS011;7639;50.784;5.468;2022-12-29T16:23:23;4.87;;;1.30;;
15080;SDS011;7639;50.784;5.468;2022-12-29T16:25:50;2.37;;;1.40;;
15080;SDS011;7639;50.784;5.468;2022-12-29T16:28:20;4.33;;;1.50;;
15080;SDS011;7639;50.784;5.468;2022-12-29T16:30:56;5.03;;;1.50;;
15080;SDS011;7639;50.784;5.468;2022-12-29T16:33:29;4.07;;;1.40;;
15080;SDS011;7639;50.784;5.468;2022-12-29T16:36:31;3.20;;;1.10;;
15080;SDS011;7639;50.784;5.468;2022-12-29T16:41:47;4.93;;;1.47;;
15080;SDS011;7639;50.784;5.468;2022-12-29T16:44:18;3.67;;;1.40;;
15080;SDS011;7639;50.784;5.468;2022-12-29T16:47:04;4.07;;;1.60;;
15080;SDS011;7639;50.784;5.468;2022-12-29T16:49:47;4.13;;;1.87;;
15080;SDS011;7639;50.784;5.468;2022-12-29T16:52:19;3.50;;;1.50;;
15080;SDS011;7639;50.784;5.468;2022-12-29T16:54:58;2.47;;;1.33;;
15080;SDS011;7639;50.784;5.468;2022-12-29T16:57:28;5.47;;;1.70;;
15080;SDS011;7639;50.784;5.468;2022-12-29T16:59:56;5.13;;;1.50;;
15080;SDS011;7639;50.784;5.468;2022-12-29T17:02:25;4.00;;;1.93;;
15080;SDS011;7639;50.784;5.468;2022-12-29T17:04:54;2.90;;;1.50;;
15080;SDS011;7639;50.784;5.468;2022-12-29T17:07:22;2.50;;;1.33;;